sensor_id;sensor_type;location;lat;lon;timestamp;pressure;altitude;pressure_sealevel;temperature
18713;BMP280;9485;49.386;8.674;2023-06-04T00:03:30;100358.06;;;20.52
18713;BMP280;9485;49.386;8.674;2023-06-04T00:08:51;100364.31;;;20.43
18713;BMP280;9485;49.386;8.674;2023-06-04T00:14:14;100358.97;;;20.39
18713;BMP280;9485;49.386;8.674;2023-06-04T00:19:37;100348.22;;;20.33
18713;BMP280;9485;49.386;8.674;2023-06-04T00:24:58;100346.81;;;20.26
18713;BMP280;9485;49.386;8.674;2023-06-04T00:30:20;100350.63;;;20.21
18713;BMP280;9485;49.386;8.674;2023-06-04T00:35:41;100353.06;;;20.17
18713;BMP280;9485;49.386;8.674;2023-06-04T00:41:01;100362.03;;;20.14
18713;BMP280;9485;49.386;8.674;2023-06-04T00:46:25;100361.50;;;20.15
18713;BMP280;9485;49.386;8.674;2023-06-04T00:51:49;100359.16;;;20.14
18713;BMP280;9485;49.386;8.674;2023-06-04T00:57:10;100366.28;;;20.20
18713;BMP280;9485;49.386;8.674;2023-06-04T01:02:34;100359.47;;;20.31
18713;BMP280;9485;49.386;8.674;2023-06-04T01:07:57;100364.47;;;20.38
18713;BMP280;9485;49.386;8.674;2023-06-04T01:13:17;100370.22;;;20.38
18713;BMP280;9485;49.386;8.674;2023-06-04T01:18:41;100356.09;;;20.39
18713;BMP280;9485;49.386;8.674;2023-06-04T01:24:05;100363.91;;;20.39
18713;BMP280;9485;49.386;8.674;2023-06-04T01:29:28;100366.78;;;20.39
18713;BMP280;9485;49.386;8.674;2023-06-04T01:34:50;100375.19;;;20.37
18713;BMP280;9485;49.386;8.674;2023-06-04T01:40:12;100375.19;;;20.37
18713;BMP280;9485;49.386;8.674;2023-06-04T01:45:33;100362.94;;;20.37
18713;BMP280;9485;49.386;8.674;2023-06-04T01:50:55;100377.09;;;20.35
18713;BMP280;9485;49.386;8.674;2023-06-04T01:56:16;100378.00;;;20.30
18713;BMP280;9485;49.386;8.674;2023-06-04T02:01:36;100376.06;;;20.25
18713;BMP280;9485;49.386;8.674;2023-06-04T02:06:59;100375.84;;;20.23
18713;BMP280;9485;49.386;8.674;2023-06-04T02:12:20;100383.50;;;20.20
18713;BMP280;9485;49.386;8.674;2023-06-04T02:17:40;100389.03;;;20.18
18713;BMP280;9485;49.386;8.674;2023-06-04T02:23:03;100402.81;;;20.20
18713;BMP280;9485;49.386;8.674;2023-06-04T02:28:23;100407.59;;;20.25
18713;BMP280;9485;49.386;8.674;2023-06-04T02:33:44;100419.69;;;20.31
18713;BMP280;9485;49.386;8.674;2023-06-04T02:39:06;100402.50;;;20.31
18713;BMP280;9485;49.386;8.674;2023-06-04T02:44:26;100421.13;;;20.17
18713;BMP280;9485;49.386;8.674;2023-06-04T02:49:49;100418.50;;;19.98
18713;BMP280;9485;49.386;8.674;2023-06-04T02:55:11;100444.44;;;19.72
18713;BMP280;9485;49.386;8.674;2023-06-04T03:00:32;100439.63;;;19.67
18713;BMP280;9485;49.386;8.674;2023-06-04T03:05:52;100436.94;;;19.69
18713;BMP280;9485;49.386;8.674;2023-06-04T03:11:15;100439.25;;;19.71
18713;BMP280;9485;49.386;8.674;2023-06-04T03:16:36;100440.78;;;19.52
18713;BMP280;9485;49.386;8.674;2023-06-04T03:21:59;100439.53;;;19.27
18713;BMP280;9485;49.386;8.674;2023-06-04T03:27:22;100439.69;;;19.21
18713;BMP280;9485;49.386;8.674;2023-06-04T03:32:43;100438.69;;;19.06
18713;BMP280;9485;49.386;8.674;2023-06-04T03:38:05;100440.72;;;18.98
18713;BMP280;9485;49.386;8.674;2023-06-04T03:43:27;100440.97;;;18.87
18713;BMP280;9485;49.386;8.674;2023-06-04T03:48:53;100439.75;;;18.83
18713;BMP280;9485;49.386;8.674;2023-06-04T03:54:14;100441.41;;;18.78
18713;BMP280;9485;49.386;8.674;2023-06-04T03:59:38;100451.00;;;18.81
18713;BMP280;9485;49.386;8.674;2023-06-04T04:05:00;100453.53;;;18.71
18713;BMP280;9485;49.386;8.674;2023-06-04T04:10:21;100447.72;;;18.64
18713;BMP280;9485;49.386;8.674;2023-06-04T04:15:44;100454.19;;;18.51
18713;BMP280;9485;49.386;8.674;2023-06-04T04:21:06;100456.53;;;18.53
18713;BMP280;9485;49.386;8.674;2023-06-04T04:26:27;100469.16;;;18.44
18713;BMP280;9485;49.386;8.674;2023-06-04T04:31:50;100477.19;;;18.46
18713;BMP280;9485;49.386;8.674;2023-06-04T04:37:14;100474.53;;;18.48
18713;BMP280;9485;49.386;8.674;2023-06-04T04:42:35;100491.16;;;18.49
18713;BMP280;9485;49.386;8.674;2023-06-04T04:47:59;100483.25;;;18.55
18713;BMP280;9485;49.386;8.674;2023-06-04T04:53:20;100492.25;;;18.59
18713;BMP280;9485;49.386;8.674;2023-06-04T04:58:42;100488.50;;;18.64
18713;BMP280;9485;49.386;8.674;2023-06-04T05:04:04;100501.63;;;18.73
18713;BMP280;9485;49.386;8.674;2023-06-04T05:09:25;100504.56;;;18.80
18713;BMP280;9485;49.386;8.674;2023-06-04T05:14:45;100510.41;;;18.87
18713;BMP280;9485;49.386;8.674;2023-06-04T05:20:09;100511.06;;;18.93
18713;BMP280;9485;49.386;8.674;2023-06-04T05:25:35;100521.69;;;19.06
18713;BMP280;9485;49.386;8.674;2023-06-04T05:30:58;100515.00;;;19.16
18713;BMP280;9485;49.386;8.674;2023-06-04T05:36:23;100516.09;;;19.26
18713;BMP280;9485;49.386;8.674;2023-06-04T05:41:49;100522.03;;;19.28
18713;BMP280;9485;49.386;8.674;2023-06-04T05:47:12;100515.06;;;19.37
18713;BMP280;9485;49.386;8.674;2023-06-04T05:52:34;100510.38;;;19.60
18713;BMP280;9485;49.386;8.674;2023-06-04T05:57:57;100517.50;;;19.66
18713;BMP280;9485;49.386;8.674;2023-06-04T06:03:19;100533.81;;;19.91
18713;BMP280;9485;49.386;8.674;2023-06-04T06:08:44;100511.88;;;19.94
18713;BMP280;9485;49.386;8.674;2023-06-04T06:14:05;100535.25;;;20.18
18713;BMP280;9485;49.386;8.674;2023-06-04T06:19:26;100537.06;;;20.08
18713;BMP280;9485;49.386;8.674;2023-06-04T06:24:48;100542.63;;;19.93
18713;BMP280;9485;49.386;8.674;2023-06-04T06:30:11;100552.09;;;20.01
18713;BMP280;9485;49.386;8.674;2023-06-04T06:35:32;100560.41;;;20.12
18713;BMP280;9485;49.386;8.674;2023-06-04T06:40:54;100571.06;;;20.25
18713;BMP280;9485;49.386;8.674;2023-06-04T06:46:15;100575.72;;;20.55
18713;BMP280;9485;49.386;8.674;2023-06-04T06:51:35;100574.78;;;20.81
18713;BMP280;9485;49.386;8.674;2023-06-04T06:56:57;100573.84;;;21.14
18713;BMP280;9485;49.386;8.674;2023-06-04T07:02:18;100584.41;;;21.54
18713;BMP280;9485;49.386;8.674;2023-06-04T07:07:39;100579.72;;;21.86
18713;BMP280;9485;49.386;8.674;2023-06-04T07:13:01;100581.34;;;22.24
18713;BMP280;9485;49.386;8.674;2023-06-04T07:18:22;100590.66;;;24.96
18713;BMP280;9485;49.386;8.674;2023-06-04T07:23:42;100611.53;;;28.44
18713;BMP280;9485;49.386;8.674;2023-06-04T07:29:06;100607.34;;;30.79
18713;BMP280;9485;49.386;8.674;2023-06-04T07:34:26;100601.13;;;31.66
18713;BMP280;9485;49.386;8.674;2023-06-04T07:39:47;100604.25;;;33.37
18713;BMP280;9485;49.386;8.674;2023-06-04T07:45:10;100608.34;;;34.45
18713;BMP280;9485;49.386;8.674;2023-06-04T07:50:31;100611.28;;;35.55
18713;BMP280;9485;49.386;8.674;2023-06-04T07:55:52;100603.09;;;36.38
18713;BMP280;9485;49.386;8.674;2023-06-04T08:01:14;100610.72;;;36.99
18713;BMP280;9485;49.386;8.674;2023-06-04T08:06:35;100605.97;;;37.70
18713;BMP280;9485;49.386;8.674;2023-06-04T08:11:55;100601.38;;;38.29
18713;BMP280;9485;49.386;8.674;2023-06-04T08:17:17;100601.88;;;38.92
18713;BMP280;9485;49.386;8.674;2023-06-04T08:22:38;100597.06;;;39.82
18713;BMP280;9485;49.386;8.674;2023-06-04T08:27:59;100596.91;;;39.23
18713;BMP280;9485;49.386;8.674;2023-06-04T08:33:22;100588.63;;;39.71
18713;BMP280;9485;49.386;8.674;2023-06-04T08:38:42;100602.47;;;40.19
18713;BMP280;9485;49.386;8.674;2023-06-04T08:44:05;100604.72;;;40.20
18713;BMP280;9485;49.386;8.674;2023-06-04T08:49:29;100604.13;;;39.44
18713;BMP280;9485;49.386;8.674;2023-06-04T08:54:54;100596.50;;;39.60
18713;BMP280;9485;49.386;8.674;2023-06-04T09:00:16;100603.56;;;40.33
18713;BMP280;9485;49.386;8.674;2023-06-04T09:05:44;100606.72;;;39.55
18713;BMP280;9485;49.386;8.674;2023-06-04T09:11:11;100596.59;;;36.59
18713;BMP280;9485;49.386;8.674;2023-06-04T09:16:43;100597.25;;;33.99
18713;BMP280;9485;49.386;8.674;2023-06-04T09:22:05;100602.53;;;33.05
18713;BMP280;9485;49.386;8.674;2023-06-04T09:27:26;100596.56;;;32.51
18713;BMP280;9485;49.386;8.674;2023-06-04T09:32:47;100599.97;;;32.59
18713;BMP280;9485;49.386;8.674;2023-06-04T09:38:09;100593.38;;;32.59
18713;BMP280;9485;49.386;8.674;2023-06-04T09:43:30;100589.28;;;32.64
18713;BMP280;9485;49.386;8.674;2023-06-04T09:49:00;100588.97;;;32.98
18713;BMP280;9485;49.386;8.674;2023-06-04T09:54:22;100592.25;;;33.73
18713;BMP280;9485;49.386;8.674;2023-06-04T09:59:44;100594.91;;;32.73
18713;BMP280;9485;49.386;8.674;2023-06-04T10:05:07;100591.13;;;32.97
18713;BMP280;9485;49.386;8.674;2023-06-04T10:10:31;100591.28;;;33.13
18713;BMP280;9485;49.386;8.674;2023-06-04T10:15:57;100567.31;;;32.76
18713;BMP280;9485;49.386;8.674;2023-06-04T10:21:19;100575.09;;;32.72
18713;BMP280;9485;49.386;8.674;2023-06-04T10:26:42;100574.00;;;33.32
18713;BMP280;9485;49.386;8.674;2023-06-04T10:32:04;100580.59;;;33.88
18713;BMP280;9485;49.386;8.674;2023-06-04T10:37:27;100573.13;;;33.43
18713;BMP280;9485;49.386;8.674;2023-06-04T10:42:50;100568.63;;;33.13
18713;BMP280;9485;49.386;8.674;2023-06-04T10:48:13;100568.38;;;33.23
18713;BMP280;9485;49.386;8.674;2023-06-04T10:53:36;100564.91;;;33.40
18713;BMP280;9485;49.386;8.674;2023-06-04T10:59:00;100567.63;;;33.22
18713;BMP280;9485;49.386;8.674;2023-06-04T11:04:22;100572.94;;;33.81
18713;BMP280;9485;49.386;8.674;2023-06-04T11:09:49;100570.31;;;34.47
18713;BMP280;9485;49.386;8.674;2023-06-04T11:15:12;100572.03;;;34.67
18713;BMP280;9485;49.386;8.674;2023-06-04T11:20:33;100565.53;;;34.53
18713;BMP280;9485;49.386;8.674;2023-06-04T11:25:55;100565.38;;;34.98
18713;BMP280;9485;49.386;8.674;2023-06-04T11:31:19;100565.78;;;35.06
18713;BMP280;9485;49.386;8.674;2023-06-04T11:36:40;100566.84;;;35.29
18713;BMP280;9485;49.386;8.674;2023-06-04T11:42:05;100561.31;;;35.37
18713;BMP280;9485;49.386;8.674;2023-06-04T11:47:28;100566.13;;;35.14
18713;BMP280;9485;49.386;8.674;2023-06-04T11:52:52;100556.91;;;35.21
18713;BMP280;9485;49.386;8.674;2023-06-04T11:58:14;100553.75;;;35.32
18713;BMP280;9485;49.386;8.674;2023-06-04T12:03:38;100556.44;;;35.26
18713;BMP280;9485;49.386;8.674;2023-06-04T12:08:58;100547.09;;;35.15
18713;BMP280;9485;49.386;8.674;2023-06-04T12:14:19;100539.56;;;35.60
18713;BMP280;9485;49.386;8.674;2023-06-04T12:19:47;100542.31;;;35.73
18713;BMP280;9485;49.386;8.674;2023-06-04T12:25:08;100531.00;;;35.66
18713;BMP280;9485;49.386;8.674;2023-06-04T12:30:36;100530.56;;;35.73
18713;BMP280;9485;49.386;8.674;2023-06-04T12:35:58;100525.22;;;35.85
18713;BMP280;9485;49.386;8.674;2023-06-04T12:41:19;100516.66;;;35.91
18713;BMP280;9485;49.386;8.674;2023-06-04T12:46:40;100519.88;;;35.47
18713;BMP280;9485;49.386;8.674;2023-06-04T12:52:04;100509.09;;;35.51
18713;BMP280;9485;49.386;8.674;2023-06-04T12:57:24;100506.25;;;35.53
18713;BMP280;9485;49.386;8.674;2023-06-04T13:02:46;100502.47;;;35.68
18713;BMP280;9485;49.386;8.674;2023-06-04T13:08:08;100507.16;;;35.93
18713;BMP280;9485;49.386;8.674;2023-06-04T13:13:29;100514.13;;;36.01
18713;BMP280;9485;49.386;8.674;2023-06-04T13:18:49;100519.06;;;36.14
18713;BMP280;9485;49.386;8.674;2023-06-04T13:24:12;100511.09;;;36.36
18713;BMP280;9485;49.386;8.674;2023-06-04T13:29:32;100502.72;;;36.65
18713;BMP280;9485;49.386;8.674;2023-06-04T13:34:54;100515.00;;;36.60
18713;BMP280;9485;49.386;8.674;2023-06-04T13:40:16;100511.03;;;35.62
18713;BMP280;9485;49.386;8.674;2023-06-04T13:45:37;100512.28;;;35.92
18713;BMP280;9485;49.386;8.674;2023-06-04T13:50:59;100502.81;;;36.30
18713;BMP280;9485;49.386;8.674;2023-06-04T13:56:22;100494.88;;;36.35
18713;BMP280;9485;49.386;8.674;2023-06-04T14:01:43;100489.81;;;36.55
18713;BMP280;9485;49.386;8.674;2023-06-04T14:07:04;100484.22;;;36.43
18713;BMP280;9485;49.386;8.674;2023-06-04T14:12:27;100485.50;;;36.02
18713;BMP280;9485;49.386;8.674;2023-06-04T14:17:48;100482.91;;;36.29
18713;BMP280;9485;49.386;8.674;2023-06-04T14:23:09;100469.72;;;36.30
18713;BMP280;9485;49.386;8.674;2023-06-04T14:28:33;100472.94;;;36.18
18713;BMP280;9485;49.386;8.674;2023-06-04T14:33:54;100451.50;;;35.44
18713;BMP280;9485;49.386;8.674;2023-06-04T14:39:15;100456.34;;;34.55
18713;BMP280;9485;49.386;8.674;2023-06-04T14:44:38;100454.03;;;33.76
18713;BMP280;9485;49.386;8.674;2023-06-04T14:49:59;100457.41;;;33.00
18713;BMP280;9485;49.386;8.674;2023-06-04T14:55:20;100436.66;;;32.27
18713;BMP280;9485;49.386;8.674;2023-06-04T15:00:46;100431.72;;;31.78
18713;BMP280;9485;49.386;8.674;2023-06-04T15:06:06;100402.63;;;31.17
18713;BMP280;9485;49.386;8.674;2023-06-04T15:11:27;100434.72;;;30.57
18713;BMP280;9485;49.386;8.674;2023-06-04T15:16:50;100426.78;;;30.24
18713;BMP280;9485;49.386;8.674;2023-06-04T15:22:10;100422.31;;;29.77
18713;BMP280;9485;49.386;8.674;2023-06-04T15:27:31;100427.09;;;29.61
18713;BMP280;9485;49.386;8.674;2023-06-04T15:32:54;100432.63;;;29.46
18713;BMP280;9485;49.386;8.674;2023-06-04T15:38:20;100434.94;;;29.26
18713;BMP280;9485;49.386;8.674;2023-06-04T15:43:41;100420.78;;;29.00
18713;BMP280;9485;49.386;8.674;2023-06-04T15:49:05;100438.16;;;28.89
18713;BMP280;9485;49.386;8.674;2023-06-04T15:54:27;100431.38;;;28.75
18713;BMP280;9485;49.386;8.674;2023-06-04T15:59:48;100415.13;;;28.60
18713;BMP280;9485;49.386;8.674;2023-06-04T16:05:10;100411.41;;;28.48
18713;BMP280;9485;49.386;8.674;2023-06-04T16:10:31;100409.22;;;28.28
18713;BMP280;9485;49.386;8.674;2023-06-04T16:15:52;100413.53;;;28.17
18713;BMP280;9485;49.386;8.674;2023-06-04T16:21:15;100406.25;;;28.07
18713;BMP280;9485;49.386;8.674;2023-06-04T16:26:36;100405.91;;;27.92
18713;BMP280;9485;49.386;8.674;2023-06-04T16:31:57;100415.25;;;27.81
18713;BMP280;9485;49.386;8.674;2023-06-04T16:37:19;100411.78;;;27.73
18713;BMP280;9485;49.386;8.674;2023-06-04T16:42:40;100412.41;;;27.62
18713;BMP280;9485;49.386;8.674;2023-06-04T16:48:01;100412.56;;;27.54
18713;BMP280;9485;49.386;8.674;2023-06-04T16:53:24;100405.88;;;27.42
18713;BMP280;9485;49.386;8.674;2023-06-04T16:58:44;100406.81;;;27.35
18713;BMP280;9485;49.386;8.674;2023-06-04T17:04:05;100410.34;;;27.25
18713;BMP280;9485;49.386;8.674;2023-06-04T17:09:28;100416.78;;;27.14
18713;BMP280;9485;49.386;8.674;2023-06-04T17:14:49;100410.97;;;27.04
18713;BMP280;9485;49.386;8.674;2023-06-04T17:20:11;100407.47;;;26.96
18713;BMP280;9485;49.386;8.674;2023-06-04T17:25:34;100417.38;;;26.93
18713;BMP280;9485;49.386;8.674;2023-06-04T17:30:54;100409.44;;;26.84
18713;BMP280;9485;49.386;8.674;2023-06-04T17:36:15;100418.28;;;26.77
18713;BMP280;9485;49.386;8.674;2023-06-04T17:41:37;100424.09;;;26.67
18713;BMP280;9485;49.386;8.674;2023-06-04T17:46:58;100421.94;;;26.49
18713;BMP280;9485;49.386;8.674;2023-06-04T17:52:23;100424.66;;;26.38
18713;BMP280;9485;49.386;8.674;2023-06-04T17:57:45;100427.34;;;26.26
18713;BMP280;9485;49.386;8.674;2023-06-04T18:03:06;100424.25;;;26.15
18713;BMP280;9485;49.386;8.674;2023-06-04T18:08:28;100425.44;;;26.02
18713;BMP280;9485;49.386;8.674;2023-06-04T18:13:50;100428.91;;;25.91
18713;BMP280;9485;49.386;8.674;2023-06-04T18:19:11;100429.47;;;25.81
18713;BMP280;9485;49.386;8.674;2023-06-04T18:24:35;100427.72;;;25.68
18713;BMP280;9485;49.386;8.674;2023-06-04T18:29:57;100436.16;;;25.57
18713;BMP280;9485;49.386;8.674;2023-06-04T18:35:18;100434.09;;;25.40
18713;BMP280;9485;49.386;8.674;2023-06-04T18:40:39;100436.16;;;25.30
18713;BMP280;9485;49.386;8.674;2023-06-04T18:46:01;100434.25;;;25.16
18713;BMP280;9485;49.386;8.674;2023-06-04T18:51:21;100433.47;;;24.99
18713;BMP280;9485;49.386;8.674;2023-06-04T18:56:42;100431.19;;;24.80
18713;BMP280;9485;49.386;8.674;2023-06-04T19:02:05;100429.66;;;24.62
18713;BMP280;9485;49.386;8.674;2023-06-04T19:07:33;100432.16;;;24.41
18713;BMP280;9485;49.386;8.674;2023-06-04T19:12:54;100430.41;;;24.22
18713;BMP280;9485;49.386;8.674;2023-06-04T19:18:16;100435.03;;;24.00
18713;BMP280;9485;49.386;8.674;2023-06-04T19:23:36;100430.03;;;23.76
18713;BMP280;9485;49.386;8.674;2023-06-04T19:28:57;100440.34;;;23.55
18713;BMP280;9485;49.386;8.674;2023-06-04T19:34:18;100444.13;;;23.33
18713;BMP280;9485;49.386;8.674;2023-06-04T19:39:39;100452.28;;;23.12
18713;BMP280;9485;49.386;8.674;2023-06-04T19:44:59;100462.53;;;22.91
18713;BMP280;9485;49.386;8.674;2023-06-04T19:50:21;100465.47;;;22.68
18713;BMP280;9485;49.386;8.674;2023-06-04T19:55:42;100462.44;;;22.44
18713;BMP280;9485;49.386;8.674;2023-06-04T20:01:03;100476.81;;;22.22
18713;BMP280;9485;49.386;8.674;2023-06-04T20:06:26;100470.28;;;21.99
18713;BMP280;9485;49.386;8.674;2023-06-04T20:11:47;100472.78;;;21.80
18713;BMP280;9485;49.386;8.674;2023-06-04T20:17:07;100467.97;;;21.60
18713;BMP280;9485;49.386;8.674;2023-06-04T20:22:30;100468.69;;;21.53
18713;BMP280;9485;49.386;8.674;2023-06-04T20:27:51;100464.50;;;21.62
18713;BMP280;9485;49.386;8.674;2023-06-04T20:33:12;100468.38;;;21.72
18713;BMP280;9485;49.386;8.674;2023-06-04T20:38:34;100471.84;;;21.92
18713;BMP280;9485;49.386;8.674;2023-06-04T20:43:55;100465.72;;;22.11
18713;BMP280;9485;49.386;8.674;2023-06-04T20:49:15;100471.28;;;22.31
18713;BMP280;9485;49.386;8.674;2023-06-04T20:54:38;100475.50;;;22.45
18713;BMP280;9485;49.386;8.674;2023-06-04T20:59:58;100471.28;;;22.54
18713;BMP280;9485;49.386;8.674;2023-06-04T21:05:18;100469.53;;;22.66
18713;BMP280;9485;49.386;8.674;2023-06-04T21:10:41;100474.09;;;22.76
18713;BMP280;9485;49.386;8.674;2023-06-04T21:16:01;100466.38;;;22.86
18713;BMP280;9485;49.386;8.674;2023-06-04T21:21:22;100470.97;;;22.89
18713;BMP280;9485;49.386;8.674;2023-06-04T21:26:43;100477.88;;;22.93
18713;BMP280;9485;49.386;8.674;2023-06-04T21:32:05;100470.59;;;22.92
18713;BMP280;9485;49.386;8.674;2023-06-04T21:37:25;100466.16;;;22.91
18713;BMP280;9485;49.386;8.674;2023-06-04T21:42:48;100473.88;;;22.89
18713;BMP280;9485;49.386;8.674;2023-06-04T21:48:09;100465.81;;;22.87
18713;BMP280;9485;49.386;8.674;2023-06-04T21:53:30;100468.31;;;22.83
18713;BMP280;9485;49.386;8.674;2023-06-04T21:58:52;100472.38;;;22.80
18713;BMP280;9485;49.386;8.674;2023-06-04T22:04:13;100458.91;;;22.75
18713;BMP280;9485;49.386;8.674;2023-06-04T22:09:33;100467.38;;;22.73
18713;BMP280;9485;49.386;8.674;2023-06-04T22:14:55;100456.81;;;22.68
18713;BMP280;9485;49.386;8.674;2023-06-04T22:20:16;100453.59;;;22.65
18713;BMP280;9485;49.386;8.674;2023-06-04T22:25:36;100458.78;;;22.59
18713;BMP280;9485;49.386;8.674;2023-06-04T22:30:58;100453.22;;;22.53
18713;BMP280;9485;49.386;8.674;2023-06-04T22:36:19;100449.19;;;22.49
18713;BMP280;9485;49.386;8.674;2023-06-04T22:41:39;100452.88;;;22.42
18713;BMP280;9485;49.386;8.674;2023-06-04T22:47:01;100455.97;;;22.36
18713;BMP280;9485;49.386;8.674;2023-06-04T22:52:22;100441.75;;;22.31
18713;BMP280;9485;49.386;8.674;2023-06-04T22:57:45;100451.34;;;22.26
18713;BMP280;9485;49.386;8.674;2023-06-04T23:03:07;100439.63;;;22.24
18713;BMP280;9485;49.386;8.674;2023-06-04T23:08:28;100452.09;;;22.19
18713;BMP280;9485;49.386;8.674;2023-06-04T23:13:49;100445.00;;;22.12
18713;BMP280;9485;49.386;8.674;2023-06-04T23:19:11;100438.09;;;22.08
18713;BMP280;9485;49.386;8.674;2023-06-04T23:24:31;100450.78;;;22.05
18713;BMP280;9485;49.386;8.674;2023-06-04T23:29:52;100446.16;;;22.02
18713;BMP280;9485;49.386;8.674;2023-06-04T23:35:14;100445.78;;;21.98
18713;BMP280;9485;49.386;8.674;2023-06-04T23:40:35;100439.63;;;21.94
18713;BMP280;9485;49.386;8.674;2023-06-04T23:45:56;100436.94;;;21.89
18713;BMP280;9485;49.386;8.674;2023-06-04T23:51:17;100431.03;;;21.87
18713;BMP280;9485;49.386;8.674;2023-06-04T23:56:38;100429.88;;;21.82
